Hagar Shores, Michigan
Current Conditions -  °F | °C
As of 10:53 PM on Monday 20 Oct 2014 (Local Time) from KBEH Reporting Station
Light Rain Light Rain  
Wind Chill: 51°   Ceiling: 3300
Heat Index: 51°   Visibility: 10mi
Dew Point: 44°   Wind: 7mph
Humidity: 77%   Direction: NA
Pressure: 29.96"   Gusts: 18mph
Location:  42.19°N, 86.31°W
Report Text: KBEH 210253Z AUTO VRB06G16KT 10SM -RA FEW022 BKN033 OVC060 11/07 A2996 RMK AO2 RAB52 SLP148 P0000 60000 T01060067 51006
Loading
Personal Weather Stations






























Interactive Weather Map
Tropical Storm Tracking
New forecast layout! Learn more

10-Day Weather Forecast

Advertisements
Track Severe Weather on mobile